Arklow Raider — EIXS — position and weather

sailwx.info

Track history (hours):
 
Tides and Currents Weather Stations Pressure Air Temp Water Temp Dewpoint Dewpoint Depression Visibility Wind Speed Wind Dir Waves Ship Positions

Arklow Raider

Last reported at 2017-Sep-22 01:58 UTC. Time now 2017-Sep-23 09:19 UTC.
Position N 53°29' E 014°37'.

Length 90 m; draft 4 m.

Type: Cargo ship. MMSI: 250001268.

Date/timePositionNaut miles runAvg speedWind from/ knotsBaromVisibWave heightAir tempDewpointWater temp
2017-Sep-22 01:58N 53°29' E 014°37'0 0.0
2017-Sep-22 01:28N 53°29' E 014°37'0 0.0
2017-Sep-22 00:58N 53°29' E 014°37'0 0.0
2017-Sep-22 00:28N 53°29' E 014°37'0 0.0
2017-Sep-21 23:58N 53°29' E 014°37'0 0.0
2017-Sep-21 23:28N 53°29' E 014°37'0 0.0
2017-Sep-21 22:58N 53°29' E 014°37'0 0.0
2017-Sep-21 22:28N 53°29' E 014°37'0 0.0
2017-Sep-21 21:58N 53°29' E 014°37'0 0.0
2017-Sep-21 21:28N 53°29' E 014°37'0 0.0
2017-Sep-21 20:58N 53°29' E 014°37'0 0.0
2017-Sep-21 20:28N 53°29' E 014°37'0 0.0
2017-Sep-21 19:58N 53°29' E 014°37'0 0.0
2017-Sep-21 19:28N 53°29' E 014°37'0 0.0
2017-Sep-21 18:58N 53°29' E 014°37'0 0.0
2017-Sep-21 18:28N 53°29' E 014°37'0 0.0
2017-Sep-21 17:58N 53°29' E 014°37'0 0.0
2017-Sep-21 17:28N 53°29' E 014°37'0 0.0
2017-Sep-21 16:58N 53°29' E 014°37'0 0.0
2017-Sep-21 16:28N 53°29' E 014°37'0 0.0
2017-Sep-21 15:58N 53°29' E 014°37'0 0.0
2017-Sep-21 15:28N 53°29' E 014°37'0 0.0
2017-Sep-21 14:58N 53°29' E 014°37'0 0.0
2017-Sep-21 14:28N 53°29' E 014°37'0 0.0
2017-Sep-21 13:58N 53°29' E 014°37'0 0.0
2017-Sep-21 13:28N 53°29' E 014°37'0 0.0
2017-Sep-21 12:58N 53°29' E 014°37'0 0.0
2017-Sep-21 12:28N 53°29' E 014°37'0 0.0
2017-Sep-21 11:58N 53°29' E 014°37'0 0.0
2017-Sep-21 11:28N 53°29' E 014°37'0 0.0
2017-Sep-21 10:58N 53°29' E 014°37'0 0.0
2017-Sep-21 10:28N 53°29' E 014°37'0 0.0
2017-Sep-21 09:58N 53°29' E 014°37'0 0.0
2017-Sep-21 09:28N 53°29' E 014°37'0 0.0
2017-Sep-21 08:58N 53°29' E 014°37'0 0.0
2017-Sep-21 08:28N 53°29' E 014°37'0 0.0
2017-Sep-21 07:58N 53°29' E 014°37'0 0.0
2017-Sep-21 07:28N 53°29' E 014°37'0 0.0
2017-Sep-21 06:58N 53°29' E 014°37'0 0.0
2017-Sep-21 06:28N 53°29' E 014°37'0 0.0
2017-Sep-21 05:58N 53°29' E 014°37'0 0.0
2017-Sep-21 05:28N 53°29' E 014°37'0 0.0
2017-Sep-21 04:58N 53°29' E 014°37'0 0.0
2017-Sep-21 04:28N 53°29' E 014°37'0 0.0
2017-Sep-21 03:58N 53°29' E 014°37'0 0.0
2017-Sep-21 03:28N 53°29' E 014°37'0 0.0
2017-Sep-21 02:58N 53°29' E 014°37'0 0.0
2017-Sep-21 02:28N 53°29' E 014°37'0 0.0
2017-Sep-21 01:58N 53°29' E 014°37'0 0.0
2017-Sep-21 01:28N 53°29' E 014°37'0 0.0
2017-Sep-21 00:58N 53°29' E 014°37'0 0.0
2017-Sep-21 00:28N 53°29' E 014°37'0 0.0
2017-Sep-20 23:58N 53°29' E 014°37'0 0.0
2017-Sep-20 23:28N 53°29' E 014°37'0 0.0
2017-Sep-20 22:58N 53°29' E 014°37'0 0.2
2017-Sep-20 22:31N 53°29' E 014°37'3 5.2
2017-Sep-20 22:01N 53°32' E 014°38'5 9.6
2017-Sep-20 21:30N 53°36' E 014°35'85 1.9
2017-Sep-19 01:28N 54°52' E 013°28'610.1
2017-Sep-19 00:50N 54°58' E 013°23'411.1
2017-Sep-19 00:31N 55°01' E 013°21'611.1
2017-Sep-18 23:57N 55°05' E 013°14'511.3
2017-Sep-18 23:29N 55°09' E 013°06'611.3
2017-Sep-18 22:55N 55°12' E 012°57'410.9
2017-Sep-18 22:30N 55°15' E 012°51'611.2
2017-Sep-18 22:00N 55°17' E 012°42'5 9.2
2017-Sep-18 21:30N 55°21' E 012°39'511.1
2017-Sep-18 21:00N 55°27' E 012°41'510.9
2017-Sep-18 20:30N 55°32' E 012°42'510.5
2017-Sep-18 20:00N 55°37' E 012°42'5 9.9
2017-Sep-18 19:30N 55°42' E 012°41'510.3
2017-Sep-18 19:00N 55°47' E 012°41'510.5
2017-Sep-18 18:30N 55°53' E 012°39'5 9.9
2017-Sep-18 18:00N 55°58' E 012°40'510.1
2017-Sep-18 17:30N 56°03' E 012°39'4 8.6
2017-Sep-18 17:00N 56°06' E 012°33'5 9.7
2017-Sep-18 16:31N 56°08' E 012°26'611.1
2017-Sep-18 16:00N 56°12' E 012°18'5610.4
2017-Sep-18 10:39N 57°04' E 011°40'210.4
2017-Sep-18 10:28N 57°05' E 011°39'510.5
2017-Sep-18 09:59N 57°10' E 011°36'510.3
2017-Sep-18 09:30N 57°15' E 011°32'610.8
2017-Sep-18 09:00N 57°20' E 011°29'510.4
2017-Sep-18 08:30N 57°25' E 011°26'510.0
2017-Sep-18 08:00N 57°29' E 011°21'510.6
2017-Sep-18 07:30N 57°33' E 011°14'510.5
2017-Sep-18 07:00N 57°36' E 011°07'510.4
2017-Sep-18 06:30N 57°40' E 010°60'510.5
2017-Sep-18 06:00N 57°43' E 010°52'510.5
2017-Sep-18 05:31N 57°47' E 010°45'510.7
2017-Sep-18 05:00N 57°47' E 010°34'611.3
2017-Sep-18 04:30N 57°46' E 010°24'611.1
2017-Sep-18 03:57N 57°47' E 010°12'510.6
2017-Sep-18 03:30N 57°46' E 010°04'710.9
2017-Sep-18 02:52N 57°43' E 009°52'510.8
2017-Sep-18 02:27N 57°41' E 009°45'  
2017-Sep-15 06:58N 54°41' W 001°04'3 6.4
2017-Sep-15 06:31N 54°40' W 000°59'3 6.6
2017-Sep-15 06:00N 54°39' W 000°54'17 8.1
2017-Sep-15 03:55N 54°32' W 000°28'410.6
2017-Sep-15 03:30N 54°29' W 000°22'510.7
2017-Sep-15 03:01N 54°25' W 000°16'510.5
2017-Sep-15 02:31N 54°21' W 000°10'510.4
2017-Sep-15 02:00N 54°17' W 000°05'510.1
2017-Sep-15 01:31N 54°13' E 000°01'510.2
2017-Sep-15 01:00N 54°09' E 000°07'5 9.9
2017-Sep-15 00:31N 54°06' E 000°13'5 9.8
2017-Sep-15 00:01N 54°02' E 000°18'55 9.6
2017-Sep-14 18:16N 53°17' E 001°12'310.2
2017-Sep-14 18:01N 53°14' E 001°12'510.3
2017-Sep-14 17:31N 53°10' E 001°17'510.2
2017-Sep-14 17:01N 53°06' E 001°22'510.0
2017-Sep-14 16:30N 53°02' E 001°27'5 9.3
2017-Sep-14 16:01N 52°59' E 001°32'4 8.7
2017-Sep-14 15:31N 52°55' E 001°37'4 7.9
2017-Sep-14 15:01N 52°53' E 001°42'3 6.6
2017-Sep-14 14:31N 52°50' E 001°45'3 5.7
2017-Sep-14 14:01N 52°48' E 001°48'3 6.5
2017-Sep-14 13:31N 52°45' E 001°51'2 4.7
2017-Sep-14 13:01N 52°43' E 001°53'3 5.0
2017-Sep-14 12:31N 52°41' E 001°54'3 5.7
2017-Sep-14 12:01N 52°38' E 001°54'4 7.7
2017-Sep-14 11:28N 52°34' E 001°54'4 8.7
2017-Sep-14 11:01N 52°30' E 001°55'5 9.4
2017-Sep-14 10:30N 52°25' E 001°55'1410.3
2017-Sep-14 09:11N 52°12' E 001°53'210.7
2017-Sep-14 09:01N 52°10' E 001°53'611.0
2017-Sep-14 08:31N 52°04' E 001°52'611.3
2017-Sep-14 08:00N 51°59' E 001°51'611.3
2017-Sep-14 07:31N 51°53' E 001°49'611.3
2017-Sep-14 07:01N 51°47' E 001°48'611.1
2017-Sep-14 06:30N 51°42' E 001°49'611.2
2017-Sep-14 06:01N 51°36' E 001°49'611.6
2017-Sep-14 05:30N 51°31' E 001°48'611.6
2017-Sep-14 05:01N 51°25' E 001°46'611.8
2017-Sep-14 04:31N 51°19' E 001°43'611.7
2017-Sep-14 04:01N 51°14' E 001°40'510.0
2017-Sep-14 03:31N 51°09' E 001°38'4 8.4
2017-Sep-14 03:01N 51°05' E 001°38'510.8
2017-Sep-14 02:31N 51°01' E 001°32'510.3
2017-Sep-14 02:00N 50°57' E 001°26'510.1
2017-Sep-14 01:30N 50°53' E 001°23'5 9.9
2017-Sep-14 01:00N 50°48' E 001°22'53 9.1
2017-Sep-13 19:11N 50°23' E 000°08'4 9.1
2017-Sep-13 18:42N 50°21' E 000°01'4 9.4
2017-Sep-13 18:15N 50°20' W 000°05'3110.3
2017-Sep-13 15:13N 50°12' W 000°52'311.8
2017-Sep-13 14:58N 50°11' W 000°57'612.6
2017-Sep-13 14:31N 50°10' W 001°05'613.0
2017-Sep-13 14:00N 50°08' W 001°15'713.3
2017-Sep-13 13:30N 50°07' W 001°25'713.5
2017-Sep-13 13:01N 50°05' W 001°35'6212.1
2017-Sep-13 07:53N 49°45' W 003°07'510.3
2017-Sep-13 07:24N 49°43' W 003°14'4 9.8
2017-Sep-13 07:01N 49°41' W 003°19'6 9.8
2017-Sep-13 06:25N 49°38' W 003°27'  
Track history (hours):
 
Tides and Currents Weather Stations Pressure Air Temp Water Temp Dewpoint Dewpoint Depression Visibility Wind Speed Wind Dir Waves Ship Positions

Arklow Raider

Last reported at 2017-Sep-22 01:58 UTC. Time now 2017-Sep-23 09:19 UTC.
Position N 53°29' E 014°37'.

Length 90 m; draft 4 m.

Type: Cargo ship. MMSI: 250001268.

Date/timePositionNaut miles runAvg speedWind from/ knotsBaromVisibWave heightAir tempDewpointWater temp
2017-Sep-22 01:58N 53°29' E 014°37'0 0.0
2017-Sep-22 01:28N 53°29' E 014°37'0 0.0
2017-Sep-22 00:58N 53°29' E 014°37'0 0.0
2017-Sep-22 00:28N 53°29' E 014°37'0 0.0
2017-Sep-21 23:58N 53°29' E 014°37'0 0.0
2017-Sep-21 23:28N 53°29' E 014°37'0 0.0
2017-Sep-21 22:58N 53°29' E 014°37'0 0.0
2017-Sep-21 22:28N 53°29' E 014°37'0 0.0
2017-Sep-21 21:58N 53°29' E 014°37'0 0.0
2017-Sep-21 21:28N 53°29' E 014°37'0 0.0
2017-Sep-21 20:58N 53°29' E 014°37'0 0.0
2017-Sep-21 20:28N 53°29' E 014°37'0 0.0
2017-Sep-21 19:58N 53°29' E 014°37'0 0.0
2017-Sep-21 19:28N 53°29' E 014°37'0 0.0
2017-Sep-21 18:58N 53°29' E 014°37'0 0.0
2017-Sep-21 18:28N 53°29' E 014°37'0 0.0
2017-Sep-21 17:58N 53°29' E 014°37'0 0.0
2017-Sep-21 17:28N 53°29' E 014°37'0 0.0
2017-Sep-21 16:58N 53°29' E 014°37'0 0.0
2017-Sep-21 16:28N 53°29' E 014°37'0 0.0
2017-Sep-21 15:58N 53°29' E 014°37'0 0.0
2017-Sep-21 15:28N 53°29' E 014°37'0 0.0
2017-Sep-21 14:58N 53°29' E 014°37'0 0.0
2017-Sep-21 14:28N 53°29' E 014°37'0 0.0
2017-Sep-21 13:58N 53°29' E 014°37'0 0.0
2017-Sep-21 13:28N 53°29' E 014°37'0 0.0
2017-Sep-21 12:58N 53°29' E 014°37'0 0.0
2017-Sep-21 12:28N 53°29' E 014°37'0 0.0
2017-Sep-21 11:58N 53°29' E 014°37'0 0.0
2017-Sep-21 11:28N 53°29' E 014°37'0 0.0
2017-Sep-21 10:58N 53°29' E 014°37'0 0.0
2017-Sep-21 10:28N 53°29' E 014°37'0 0.0
2017-Sep-21 09:58N 53°29' E 014°37'0 0.0
2017-Sep-21 09:28N 53°29' E 014°37'0 0.0
2017-Sep-21 08:58N 53°29' E 014°37'0 0.0
2017-Sep-21 08:28N 53°29' E 014°37'0 0.0
2017-Sep-21 07:58N 53°29' E 014°37'0 0.0
2017-Sep-21 07:28N 53°29' E 014°37'0 0.0
2017-Sep-21 06:58N 53°29' E 014°37'0 0.0
2017-Sep-21 06:28N 53°29' E 014°37'0 0.0
2017-Sep-21 05:58N 53°29' E 014°37'0 0.0
2017-Sep-21 05:28N 53°29' E 014°37'0 0.0
2017-Sep-21 04:58N 53°29' E 014°37'0 0.0
2017-Sep-21 04:28N 53°29' E 014°37'0 0.0
2017-Sep-21 03:58N 53°29' E 014°37'0 0.0
2017-Sep-21 03:28N 53°29' E 014°37'0 0.0
2017-Sep-21 02:58N 53°29' E 014°37'0 0.0
2017-Sep-21 02:28N 53°29' E 014°37'0 0.0
2017-Sep-21 01:58N 53°29' E 014°37'0 0.0
2017-Sep-21 01:28N 53°29' E 014°37'0 0.0
2017-Sep-21 00:58N 53°29' E 014°37'0 0.0
2017-Sep-21 00:28N 53°29' E 014°37'0 0.0
2017-Sep-20 23:58N 53°29' E 014°37'0 0.0
2017-Sep-20 23:28N 53°29' E 014°37'0 0.0
2017-Sep-20 22:58N 53°29' E 014°37'0 0.2
2017-Sep-20 22:31N 53°29' E 014°37'3 5.2
2017-Sep-20 22:01N 53°32' E 014°38'5 9.6
2017-Sep-20 21:30N 53°36' E 014°35'85 1.9
2017-Sep-19 01:28N 54°52' E 013°28'610.1
2017-Sep-19 00:50N 54°58' E 013°23'411.1
2017-Sep-19 00:31N 55°01' E 013°21'611.1
2017-Sep-18 23:57N 55°05' E 013°14'511.3
2017-Sep-18 23:29N 55°09' E 013°06'611.3
2017-Sep-18 22:55N 55°12' E 012°57'410.9
2017-Sep-18 22:30N 55°15' E 012°51'611.2
2017-Sep-18 22:00N 55°17' E 012°42'5 9.2
2017-Sep-18 21:30N 55°21' E 012°39'511.1
2017-Sep-18 21:00N 55°27' E 012°41'510.9
2017-Sep-18 20:30N 55°32' E 012°42'510.5
2017-Sep-18 20:00N 55°37' E 012°42'5 9.9
2017-Sep-18 19:30N 55°42' E 012°41'510.3
2017-Sep-18 19:00N 55°47' E 012°41'510.5
2017-Sep-18 18:30N 55°53' E 012°39'5 9.9
2017-Sep-18 18:00N 55°58' E 012°40'510.1
2017-Sep-18 17:30N 56°03' E 012°39'4 8.6
2017-Sep-18 17:00N 56°06' E 012°33'5 9.7
2017-Sep-18 16:31N 56°08' E 012°26'611.1
2017-Sep-18 16:00N 56°12' E 012°18'5610.4
2017-Sep-18 10:39N 57°04' E 011°40'210.4
2017-Sep-18 10:28N 57°05' E 011°39'510.5
2017-Sep-18 09:59N 57°10' E 011°36'510.3
2017-Sep-18 09:30N 57°15' E 011°32'610.8
2017-Sep-18 09:00N 57°20' E 011°29'510.4
2017-Sep-18 08:30N 57°25' E 011°26'510.0
2017-Sep-18 08:00N 57°29' E 011°21'510.6
2017-Sep-18 07:30N 57°33' E 011°14'510.5
2017-Sep-18 07:00N 57°36' E 011°07'510.4
2017-Sep-18 06:30N 57°40' E 010°60'510.5
2017-Sep-18 06:00N 57°43' E 010°52'510.5
2017-Sep-18 05:31N 57°47' E 010°45'510.7
2017-Sep-18 05:00N 57°47' E 010°34'611.3
2017-Sep-18 04:30N 57°46' E 010°24'611.1
2017-Sep-18 03:57N 57°47' E 010°12'510.6
2017-Sep-18 03:30N 57°46' E 010°04'710.9
2017-Sep-18 02:52N 57°43' E 009°52'510.8
2017-Sep-18 02:27N 57°41' E 009°45'  
2017-Sep-15 06:58N 54°41' W 001°04'3 6.4
2017-Sep-15 06:31N 54°40' W 000°59'3 6.6
2017-Sep-15 06:00N 54°39' W 000°54'17 8.1
2017-Sep-15 03:55N 54°32' W 000°28'410.6
2017-Sep-15 03:30N 54°29' W 000°22'510.7
2017-Sep-15 03:01N 54°25' W 000°16'510.5
2017-Sep-15 02:31N 54°21' W 000°10'510.4
2017-Sep-15 02:00N 54°17' W 000°05'510.1
2017-Sep-15 01:31N 54°13' E 000°01'510.2
2017-Sep-15 01:00N 54°09' E 000°07'5 9.9
2017-Sep-15 00:31N 54°06' E 000°13'5 9.8
2017-Sep-15 00:01N 54°02' E 000°18'55 9.6
2017-Sep-14 18:16N 53°17' E 001°12'310.2
2017-Sep-14 18:01N 53°14' E 001°12'510.3
2017-Sep-14 17:31N 53°10' E 001°17'510.2
2017-Sep-14 17:01N 53°06' E 001°22'510.0
2017-Sep-14 16:30N 53°02' E 001°27'5 9.3
2017-Sep-14 16:01N 52°59' E 001°32'4 8.7
2017-Sep-14 15:31N 52°55' E 001°37'4 7.9
2017-Sep-14 15:01N 52°53' E 001°42'3 6.6
2017-Sep-14 14:31N 52°50' E 001°45'3 5.7
2017-Sep-14 14:01N 52°48' E 001°48'3 6.5
2017-Sep-14 13:31N 52°45' E 001°51'2 4.7
2017-Sep-14 13:01N 52°43' E 001°53'3 5.0
2017-Sep-14 12:31N 52°41' E 001°54'3 5.7
2017-Sep-14 12:01N 52°38' E 001°54'4 7.7
2017-Sep-14 11:28N 52°34' E 001°54'4 8.7
2017-Sep-14 11:01N 52°30' E 001°55'5 9.4
2017-Sep-14 10:30N 52°25' E 001°55'1410.3
2017-Sep-14 09:11N 52°12' E 001°53'210.7
2017-Sep-14 09:01N 52°10' E 001°53'611.0
2017-Sep-14 08:31N 52°04' E 001°52'611.3
2017-Sep-14 08:00N 51°59' E 001°51'611.3
2017-Sep-14 07:31N 51°53' E 001°49'611.3
2017-Sep-14 07:01N 51°47' E 001°48'611.1
2017-Sep-14 06:30N 51°42' E 001°49'611.2
2017-Sep-14 06:01N 51°36' E 001°49'611.6
2017-Sep-14 05:30N 51°31' E 001°48'611.6
2017-Sep-14 05:01N 51°25' E 001°46'611.8
2017-Sep-14 04:31N 51°19' E 001°43'611.7
2017-Sep-14 04:01N 51°14' E 001°40'510.0
2017-Sep-14 03:31N 51°09' E 001°38'4 8.4
2017-Sep-14 03:01N 51°05' E 001°38'510.8
2017-Sep-14 02:31N 51°01' E 001°32'510.3
2017-Sep-14 02:00N 50°57' E 001°26'510.1
2017-Sep-14 01:30N 50°53' E 001°23'5 9.9
2017-Sep-14 01:00N 50°48' E 001°22'53 9.1
2017-Sep-13 19:11N 50°23' E 000°08'4 9.1
2017-Sep-13 18:42N 50°21' E 000°01'4 9.4
2017-Sep-13 18:15N 50°20' W 000°05'3110.3
2017-Sep-13 15:13N 50°12' W 000°52'311.8
2017-Sep-13 14:58N 50°11' W 000°57'612.6
2017-Sep-13 14:31N 50°10' W 001°05'613.0
2017-Sep-13 14:00N 50°08' W 001°15'713.3
2017-Sep-13 13:30N 50°07' W 001°25'713.5
2017-Sep-13 13:01N 50°05' W 001°35'6212.1
2017-Sep-13 07:53N 49°45' W 003°07'510.3
2017-Sep-13 07:24N 49°43' W 003°14'4 9.8
2017-Sep-13 07:01N 49°41' W 003°19'6 9.8
2017-Sep-13 06:25N 49°38' W 003°27'  

Dump ship's entire track history